Wrightstown, WI (54180)

11:23 AM CDT on May 30, 2015 (GMT -0500)
Town of Kaukauna | | Change Station
CLOSE
Current Station
Personal Weather Station
Location: Kaukauna, WI
Elevation: 701 ft
Nearby Weather Stations

Elev 701 ft 44.33 °N, 88.21 °W | Updated 7 seconds ago

Rain
Rain
50.9 °F
Feels Like 50.9 °F
N
1.3
Wind Variable Wind from NE
Gusts 4.9 mph

Today
High -- | Low -- °F
--% Chance of Precip.
Yesterday
High -- | Low -- °F
Precip. -- in
5:12 AM 8:27 PM
Waxing Gibbous, 91% visible
Pressure 30.15 in
Visibility 6.0 miles
Clouds Few 1700 ft
Scattered Clouds 4700 ft
Overcast 7500 ft
Dew Point 50 °F
Humidity 97%
Rainfall 0.89 in
Snow Depth Not available.
UV 1.0 out of 12
Pollen 5.50 out of 12
Air Quality Not available.
Flu Activity Sporadic
METAR KGRB 301553Z 01012KT 6SM -RA BR FEW017 SCT047 OVC075 11/09 A3015 RMK AO2 SLP210 P0002 T01110094

More Conditions Fewer Conditions

Pressure 30.15 in
Visibility 6.0 miles
Clouds Few 1700 ft
Scattered Clouds 4700 ft
Overcast 7500 ft
Dew Point 50 °F
Humidity 97%
Rainfall 0.89 in
Snow Depth Not available.
UV 1.0 out of 12
Pollen 5.50 out of 12
Air Quality Not available.
Flu Activity Sporadic
METAR KGRB 301553Z 01012KT 6SM -RA BR FEW017 SCT047 OVC075 11/09 A3015 RMK AO2 SLP210 P0002 T01110094

More Conditions Fewer Conditions

10-Day Weather Forecast

Almanac

Astronomy

May. 30, 2015 Rise Set
Actual Time
Civil Twilight
Nautical Twilight
Astronomical Twilight
Moon
Length of Visible Light
Length of Day
Tomorrow will be .
, % of the Moon is Illuminated

Today's Extremes

State Highs State Lows

Community

WunderPhotos

Upload Photos

1,825,559 photos uploaded!

WunderBlogs® & News

Nearby

Air Quality

  Air Quality AQ Index Pollutant
Not available.

Snow Depth

Station Depth Elevation

Earthquake Activity

City Distance Mag. Time & Date
Minimum magnitude displayed is 2.5.

Coastal Water Temperatures

Place Temperature

Stations

Nearby Weather Stations

Station Location Temp. Windchill Dew Point Humidity Wind Precip. Elev Updated Type